Time,TemperatureF,DewpointF,PressureIn,WindDirection,WindDirectionDegrees,WindSpeedMPH,WindSpeedGustMPH,Humidity,HourlyPrecipIn,Conditions,Clouds,dailyrainin,SoftwareType,DateUTC
2013-03-03 10:15:00,35.9,19.5,29.95,NW,319,6.0,6.0,51,0.00,,,0.00,Wunderground v.1.15,2013-03-03 15:15:00,
2013-03-03 10:16:00,35.8,19.4,29.95,North,360,6.0,6.0,51,0.00,,,0.00,Wunderground v.1.15,2013-03-03 15:16:00,
2013-03-03 10:18:00,35.7,19.3,29.95,NE,34,6.0,6.0,51,0.00,,,0.00,Wunderground v.1.15,2013-03-03 15:18:00,
2013-03-03 10:23:00,36.1,20.2,29.95,NW,315,7.0,14.0,52,0.00,,,0.00,Wunderground v.1.15,2013-03-03 15:23:00,
2013-03-03 10:28:00,36.2,20.2,29.95,NNW,348,7.0,8.0,52,0.00,,,0.00,Wunderground v.1.15,2013-03-03 15:28:00,
2013-03-03 10:34:00,36.6,20.6,29.95,North,11,7.0,13.0,52,0.00,,,0.00,Wunderground v.1.15,2013-03-03 15:34:00,
2013-03-03 10:39:00,36.7,19.8,29.95,North,5,8.0,12.0,50,0.00,,,0.00,Wunderground v.1.15,2013-03-03 15:39:00,
2013-03-03 10:45:00,36.9,20.4,29.94,NE,39,10.0,10.0,51,0.00,,,0.00,Wunderground v.1.15,2013-03-03 15:45:00,
2013-03-03 10:51:00,37.0,20.1,29.94,WSW,253,7.0,10.0,50,0.00,,,0.00,Wunderground v.1.15,2013-03-03 15:51:00,
2013-03-03 10:56:00,37.8,20.8,29.94,NNW,328,6.0,8.0,50,0.00,,,0.00,Wunderground v.1.15,2013-03-03 15:56:00,
2013-03-03 11:01:00,37.5,20.5,29.94,NNE,30,8.0,8.0,50,0.00,,,0.00,Wunderground v.1.15,2013-03-03 16:01:00,
2013-03-03 11:07:00,37.9,20.9,29.94,NNE,24,6.0,8.0,50,0.00,,,0.00,Wunderground v.1.15,2013-03-03 16:07:00,
2013-03-03 11:13:00,38.2,20.7,29.95,SW,232,4.0,6.0,49,0.00,,,0.00,Wunderground v.1.15,2013-03-03 16:13:00,
2013-03-03 11:18:00,38.3,20.3,29.94,WSW,237,5.0,6.0,48,0.00,,,0.00,Wunderground v.1.15,2013-03-03 16:18:00,
2013-03-03 11:24:00,38.3,20.3,29.95,West,281,7.0,16.0,48,0.00,,,0.00,Wunderground v.1.15,2013-03-03 16:24:00,
2013-03-03 11:29:00,37.9,20.4,29.94,WSW,248,7.0,16.0,49,0.00,,,0.00,Wunderground v.1.15,2013-03-03 16:29:00,
2013-03-03 11:35:00,38.5,20.5,29.94,NW,324,7.0,11.0,48,0.00,,,0.00,Wunderground v.1.15,2013-03-03 16:35:00,
2013-03-03 11:41:00,37.6,20.1,29.94,North,9,7.0,11.0,49,0.00,,,0.00,Wunderground v.1.15,2013-03-03 16:41:00,
2013-03-03 11:47:00,38.1,20.6,29.93,North,5,6.0,11.0,49,0.00,,,0.00,Wunderground v.1.15,2013-03-03 16:47:00,
2013-03-03 11:53:00,38.2,20.7,29.94,WNW,290,6.0,6.0,49,0.00,,,0.00,Wunderground v.1.15,2013-03-03 16:53:00,
2013-03-03 11:58:00,39.1,20.0,29.93,NW,306,6.0,14.0,46,0.00,,,0.00,Wunderground v.1.15,2013-03-03 16:58:00,
2013-03-03 12:03:00,39.2,21.6,29.93,WNW,295,6.0,8.0,49,0.00,,,0.00,Wunderground v.1.15,2013-03-03 17:03:00,
2013-03-03 12:09:00,38.9,20.4,29.93,West,273,5.0,9.0,47,0.00,,,0.00,Wunderground v.1.15,2013-03-03 17:09:00,
2013-03-03 12:15:00,39.9,21.8,29.93,West,265,5.0,9.0,48,0.00,,,0.00,Wunderground v.1.15,2013-03-03 17:15:00,
2013-03-03 12:20:00,39.2,20.6,29.93,NW,321,5.0,5.0,47,0.00,,,0.00,Wunderground v.1.15,2013-03-03 17:20:00,
2013-03-03 12:26:00,39.8,20.7,29.92,NNE,28,5.0,9.0,46,0.00,,,0.00,Wunderground v.1.15,2013-03-03 17:26:00,
2013-03-03 12:32:00,39.4,21.3,29.92,WSW,255,5.0,12.0,48,0.00,,,0.00,Wunderground v.1.15,2013-03-03 17:32:00,
2013-03-03 12:37:00,40.4,21.7,29.92,West,280,6.0,12.0,47,0.00,,,0.00,Wunderground v.1.15,2013-03-03 17:37:00,
2013-03-03 12:43:00,40.2,21.0,29.92,West,268,6.0,7.0,46,0.00,,,0.00,Wunderground v.1.15,2013-03-03 17:43:00,
2013-03-03 12:49:00,39.3,21.2,29.92,WNW,300,5.0,8.0,48,0.00,,,0.00,Wunderground v.1.15,2013-03-03 17:49:00,
2013-03-03 12:54:00,39.1,20.5,29.91,West,271,5.0,9.0,47,0.00,,,0.00,Wunderground v.1.15,2013-03-03 17:54:00,
2013-03-03 13:00:00,40.9,22.7,29.91,WSW,250,5.0,15.0,48,0.00,,,0.00,Wunderground v.1.15,2013-03-03 18:00:00,
2013-03-03 13:06:00,40.9,21.2,29.90,NNE,26,6.0,15.0,45,0.00,,,0.00,Wunderground v.1.15,2013-03-03 18:06:00,
2013-03-03 13:11:00,40.7,21.5,29.90,North,5,6.0,11.0,46,0.00,,,0.00,Wunderground v.1.15,2013-03-03 18:11:00,
2013-03-03 13:17:00,40.7,21.0,29.90,West,275,6.0,11.0,45,0.00,,,0.00,Wunderground v.1.15,2013-03-03 18:17:00,
2013-03-03 13:22:00,40.7,21.0,29.90,NW,317,6.0,8.0,45,0.00,,,0.00,Wunderground v.1.15,2013-03-03 18:22:00,
2013-03-03 13:28:00,40.8,22.1,29.89,SW,235,6.0,8.0,47,0.00,,,0.00,Wunderground v.1.15,2013-03-03 18:28:00,
2013-03-03 13:34:00,41.5,22.2,29.89,SW,234,5.0,9.0,46,0.00,,,0.00,Wunderground v.1.15,2013-03-03 18:34:00,
2013-03-03 13:39:00,42.0,21.6,29.89,North,5,5.0,9.0,44,0.00,,,0.00,Wunderground v.1.15,2013-03-03 18:39:00,
2013-03-03 13:45:00,42.6,23.2,29.89,West,267,5.0,8.0,46,0.00,,,0.00,Wunderground v.1.15,2013-03-03 18:45:00,
2013-03-03 13:51:00,42.4,22.5,29.88,SW,232,6.0,12.0,45,0.00,,,0.00,Wunderground v.1.15,2013-03-03 18:51:00,
2013-03-03 13:56:00,42.9,23.0,29.88,WSW,242,10.0,14.0,45,0.00,,,0.00,Wunderground v.1.15,2013-03-03 18:56:00,
2013-03-03 14:02:00,43.7,23.2,29.88,North,5,8.0,9.0,44,0.00,,,0.00,Wunderground v.1.15,2013-03-03 19:02:00,
2013-03-03 14:08:00,43.0,22.0,29.88,North,5,6.0,12.0,43,0.00,,,0.00,Wunderground v.1.15,2013-03-03 19:08:00,
2013-03-03 14:13:00,43.4,22.9,29.87,WSW,242,7.0,7.0,44,0.00,,,0.00,Wunderground v.1.15,2013-03-03 19:13:00,
2013-03-03 14:19:00,44.2,23.6,29.88,NW,309,6.0,8.0,44,0.00,,,0.00,Wunderground v.1.15,2013-03-03 19:19:00,
2013-03-03 14:24:00,43.6,22.5,29.87,North,5,6.0,11.0,43,0.00,,,0.00,Wunderground v.1.15,2013-03-03 19:24:00,
2013-03-03 14:30:00,42.8,22.4,29.87,West,262,6.0,6.0,44,0.00,,,0.00,Wunderground v.1.15,2013-03-03 19:30:00,
2013-03-03 14:36:00,43.2,23.3,29.87,WNW,289,7.0,12.0,45,0.00,,,0.00,Wunderground v.1.15,2013-03-03 19:36:00,
2013-03-03 14:41:00,43.4,22.9,29.88,West,264,8.0,11.0,44,0.00,,,0.00,Wunderground v.1.15,2013-03-03 19:41:00,
2013-03-03 14:47:00,42.8,22.9,29.87,NNE,20,5.0,11.0,45,0.00,,,0.00,Wunderground v.1.15,2013-03-03 19:47:00,
2013-03-03 14:53:00,43.6,23.1,29.88,NNE,32,6.0,7.0,44,0.00,,,0.00,Wunderground v.1.15,2013-03-03 19:53:00,
2013-03-03 14:58:00,44.0,24.5,29.88,NNE,23,7.0,9.0,46,0.00,,,0.00,Wunderground v.1.15,2013-03-03 19:58:00,
2013-03-03 15:04:00,42.8,21.8,29.88,NW,319,7.0,10.0,43,0.00,,,0.00,Wunderground v.1.15,2013-03-03 20:04:00,
2013-03-03 15:10:00,41.6,21.8,29.88,NW,306,6.0,8.0,45,0.00,,,0.00,Wunderground v.1.15,2013-03-03 20:10:00,
2013-03-03 15:16:00,41.3,21.5,29.88,West,261,5.0,8.0,45,0.00,,,0.00,Wunderground v.1.15,2013-03-03 20:16:00,
2013-03-03 15:21:00,41.7,22.9,29.88,WSW,242,5.0,8.0,47,0.00,,,0.00,Wunderground v.1.15,2013-03-03 20:21:00,
2013-03-03 15:27:00,42.7,23.3,29.88,WSW,241,7.0,11.0,46,0.00,,,0.00,Wunderground v.1.15,2013-03-03 20:27:00,
2013-03-03 15:33:00,42.4,23.1,29.88,WSW,244,9.0,10.0,46,0.00,,,0.00,Wunderground v.1.15,2013-03-03 20:33:00,
2013-03-03 15:38:00,42.0,22.7,29.88,WNW,295,7.0,10.0,46,0.00,,,0.00,Wunderground v.1.15,2013-03-03 20:38:00,
2013-03-03 15:44:00,41.5,21.7,29.88,WNW,294,6.0,10.0,45,0.00,,,0.00,Wunderground v.1.15,2013-03-03 20:44:00,
2013-03-03 15:50:00,41.8,23.0,29.88,WSW,248,4.0,4.0,47,0.00,,,0.00,Wunderground v.1.15,2013-03-03 20:50:00,
2013-03-03 15:55:00,43.2,23.3,29.88,West,263,3.0,13.0,45,0.00,,,0.00,Wunderground v.1.15,2013-03-03 20:55:00,
2013-03-03 16:00:00,44.5,24.5,29.88,West,265,7.0,7.0,45,0.00,,,0.00,Wunderground v.1.15,2013-03-03 21:00:00,
2013-03-03 16:06:00,43.3,22.8,29.88,NW,305,8.0,9.0,44,0.00,,,0.00,Wunderground v.1.15,2013-03-03 21:06:00,
2013-03-03 16:12:00,42.3,22.4,29.88,NNW,327,6.0,8.0,45,0.00,,,0.00,Wunderground v.1.15,2013-03-03 21:12:00,
2013-03-03 16:17:00,41.9,22.6,29.88,WNW,290,4.0,8.0,46,0.00,,,0.00,Wunderground v.1.15,2013-03-03 21:17:00,
2013-03-03 16:23:00,41.7,22.9,29.88,NNE,13,4.0,4.0,47,0.00,,,0.00,Wunderground v.1.15,2013-03-03 21:23:00,
2013-03-03 16:29:00,42.0,23.2,29.88,NNW,329,3.0,7.0,47,0.00,,,0.00,Wunderground v.1.15,2013-03-03 21:29:00,
2013-03-03 16:35:00,41.7,22.9,29.88,North,5,4.0,8.0,47,0.00,,,0.00,Wunderground v.1.15,2013-03-03 21:35:00,
2013-03-03 16:40:00,41.6,22.8,29.88,NNW,330,4.0,4.0,47,0.00,,,0.00,Wunderground v.1.15,2013-03-03 21:40:00,
2013-03-03 16:46:00,41.6,23.3,29.88,NW,325,4.0,9.0,48,0.00,,,0.00,Wunderground v.1.15,2013-03-03 21:46:00,
2013-03-03 16:51:00,41.9,23.1,29.88,WSW,244,4.0,4.0,47,0.00,,,0.00,Wunderground v.1.15,2013-03-03 21:51:00,
2013-03-03 16:57:00,41.8,23.0,29.88,WNW,285,4.0,8.0,47,0.00,,,0.00,Wunderground v.1.15,2013-03-03 21:57:00,
2013-03-03 17:02:00,41.4,23.2,29.88,NW,315,5.0,8.0,48,0.00,,,0.00,Wunderground v.1.15,2013-03-03 22:02:00,
2013-03-03 17:08:00,41.1,22.9,29.89,North,349,6.0,10.0,48,0.00,,,0.00,Wunderground v.1.15,2013-03-03 22:08:00,
2013-03-03 17:14:00,40.5,22.3,29.89,North,355,7.0,14.0,48,0.00,,,0.00,Wunderground v.1.15,2013-03-03 22:14:00,
2013-03-03 17:19:00,40.1,22.4,29.89,NW,319,8.0,14.0,49,0.00,,,0.00,Wunderground v.1.15,2013-03-03 22:19:00,
2013-03-03 17:25:00,40.2,22.5,29.90,NNE,15,7.0,8.0,49,0.00,,,0.00,Wunderground v.1.15,2013-03-03 22:25:00,
2013-03-03 17:31:00,40.0,22.4,29.90,NNE,19,6.0,17.0,49,0.00,,,0.00,Wunderground v.1.15,2013-03-03 22:31:00,
2013-03-03 17:36:00,39.8,22.2,29.90,West,276,6.0,17.0,49,0.00,,,0.00,Wunderground v.1.15,2013-03-03 22:36:00,
2013-03-03 17:42:00,39.5,21.9,29.91,North,11,6.0,7.0,49,0.00,,,0.00,Wunderground v.1.15,2013-03-03 22:42:00,
2013-03-03 17:48:00,38.9,21.3,29.91,WNW,302,7.0,9.0,49,0.00,,,0.00,Wunderground v.1.15,2013-03-03 22:48:00,
2013-03-03 17:54:00,38.6,21.5,29.91,North,360,6.0,6.0,50,0.00,,,0.00,Wunderground v.1.15,2013-03-03 22:54:00,
2013-03-03 17:59:00,38.4,21.4,29.92,North,355,4.0,6.0,50,0.00,,,0.00,Wunderground v.1.15,2013-03-03 22:59:00,
2013-03-03 18:05:00,38.0,21.0,29.92,NNE,24,5.0,7.0,50,0.00,,,0.00,Wunderground v.1.15,2013-03-03 23:05:00,
2013-03-03 18:11:00,37.7,20.7,29.92,North,5,6.0,6.0,50,0.00,,,0.00,Wunderground v.1.15,2013-03-03 23:11:00,
2013-03-03 18:16:00,37.4,21.4,29.92,NNE,13,5.0,6.0,52,0.00,,,0.00,Wunderground v.1.15,2013-03-03 23:16:00,
2013-03-03 18:22:00,37.0,20.5,29.93,North,351,6.0,10.0,51,0.00,,,0.00,Wunderground v.1.15,2013-03-03 23:22:00,
2013-03-03 18:28:00,36.8,20.8,29.93,North,11,6.0,12.0,52,0.00,,,0.00,Wunderground v.1.15,2013-03-03 23:28:00,
2013-03-03 18:33:00,36.5,20.5,29.93,NNE,25,5.0,6.0,52,0.00,,,0.00,Wunderground v.1.15,2013-03-03 23:33:00,
2013-03-03 18:39:00,36.3,20.3,29.93,North,355,6.0,13.0,52,0.00,,,0.00,Wunderground v.1.15,2013-03-03 23:39:00,
2013-03-03 18:44:00,36.0,20.5,29.94,NNE,15,6.0,6.0,53,0.00,,,0.00,Wunderground v.1.15,2013-03-03 23:44:00,
2013-03-03 18:50:00,35.7,20.7,29.94,NNE,12,5.0,5.0,54,0.00,,,0.00,Wunderground v.1.15,2013-03-03 23:50:00,
2013-03-03 18:55:00,35.4,20.4,29.94,NNE,24,6.0,11.0,54,0.00,,,0.00,Wunderground v.1.15,2013-03-03 23:55:00,
2013-03-03 19:00:00,35.2,20.2,29.94,NNE,20,6.0,7.0,54,0.00,,,0.00,Wunderground v.1.15,2013-03-04 00:00:00,
2013-03-03 19:05:00,35.0,20.4,29.94,North,355,5.0,7.0,55,0.00,,,0.00,Wunderground v.1.15,2013-03-04 00:05:00,
2013-03-03 19:11:00,34.8,20.3,29.95,North,9,5.0,6.0,55,0.00,,,0.00,Wunderground v.1.15,2013-03-04 00:11:00,
2013-03-03 19:17:00,34.6,20.1,29.95,NNE,19,4.0,7.0,55,0.00,,,0.00,Wunderground v.1.15,2013-03-04 00:17:00,
2013-03-03 19:22:00,34.4,20.3,29.95,NNE,33,5.0,5.0,56,0.00,,,0.00,Wunderground v.1.15,2013-03-04 00:22:00,
2013-03-03 19:28:00,34.2,20.1,29.96,North,350,5.0,8.0,56,0.00,,,0.00,Wunderground v.1.15,2013-03-04 00:28:00,
2013-03-03 19:34:00,34.1,20.0,29.96,North,10,5.0,7.0,56,0.00,,,0.00,Wunderground v.1.15,2013-03-04 00:34:00,
2013-03-03 19:39:00,33.9,19.8,29.96,North,349,4.0,7.0,56,0.00,,,0.00,Wunderground v.1.15,2013-03-04 00:39:00,
2013-03-03 19:45:00,33.7,20.1,29.96,NE,38,5.0,8.0,57,0.00,,,0.00,Wunderground v.1.15,2013-03-04 00:45:00,
2013-03-03 19:51:00,33.6,19.6,29.96,North,5,5.0,7.0,56,0.00,,,0.00,Wunderground v.1.15,2013-03-04 00:51:00,
2013-03-03 19:56:00,33.5,19.5,29.96,NNE,17,6.0,7.0,56,0.00,,,0.00,Wunderground v.1.15,2013-03-04 00:56:00,
2013-03-03 20:02:00,33.3,19.3,29.96,North,10,5.0,7.0,56,0.00,,,0.00,Wunderground v.1.15,2013-03-04 01:02:00,
2013-03-03 20:08:00,33.1,19.5,29.97,NNE,15,4.0,7.0,57,0.00,,,0.00,Wunderground v.1.15,2013-03-04 01:08:00,
2013-03-03 20:14:00,33.0,19.4,29.97,North,360,4.0,5.0,57,0.00,,,0.00,Wunderground v.1.15,2013-03-04 01:14:00,
2013-03-03 20:19:00,32.9,19.3,29.97,North,11,3.0,5.0,57,0.00,,,0.00,Wunderground v.1.15,2013-03-04 01:19:00,
2013-03-03 20:25:00,32.7,19.1,29.97,NNW,346,3.0,5.0,57,0.00,,,0.00,Wunderground v.1.15,2013-03-04 01:25:00,
2013-03-03 20:30:00,32.6,19.4,29.97,North,9,3.0,5.0,58,0.00,,,0.00,Wunderground v.1.15,2013-03-04 01:30:00,
2013-03-03 20:36:00,32.6,19.0,29.97,NE,36,3.0,7.0,57,0.00,,,0.00,Wunderground v.1.15,2013-03-04 01:36:00,
2013-03-03 20:42:00,32.5,18.9,29.97,NNE,19,3.0,4.0,57,0.00,,,0.00,Wunderground v.1.15,2013-03-04 01:42:00,
2013-03-03 20:47:00,32.4,18.8,29.98,NNW,333,3.0,4.0,57,0.00,,,0.00,Wunderground v.1.15,2013-03-04 01:47:00,
2013-03-03 20:53:00,32.3,18.8,29.98,NNE,17,3.0,5.0,57,0.00,,,0.00,Wunderground v.1.15,2013-03-04 01:53:00,
2013-03-03 20:58:00,32.0,18.5,29.98,NNW,340,3.0,5.0,57,0.00,,,0.00,Wunderground v.1.15,2013-03-04 01:58:00,
2013-03-03 21:04:00,31.9,18.8,29.98,North,355,2.0,3.0,58,0.00,,,0.00,Wunderground v.1.15,2013-03-04 02:04:00,
2013-03-03 21:10:00,31.9,18.8,29.99,NNE,13,1.0,1.0,58,0.00,,,0.00,Wunderground v.1.15,2013-03-04 02:10:00,
2013-03-03 21:15:00,31.7,18.6,29.99,North,5,1.0,3.0,58,0.00,,,0.00,Wunderground v.1.15,2013-03-04 02:15:00,
2013-03-03 21:21:00,31.5,18.8,29.99,North,355,1.0,2.0,59,0.00,,,0.00,Wunderground v.1.15,2013-03-04 02:21:00,
2013-03-03 21:27:00,31.3,18.6,29.99,North,5,2.0,5.0,59,0.00,,,0.00,Wunderground v.1.15,2013-03-04 02:27:00,
2013-03-03 21:32:00,31.3,19.0,29.99,NNE,13,3.0,4.0,60,0.00,,,0.00,Wunderground v.1.15,2013-03-04 02:32:00,
2013-03-03 21:38:00,31.1,18.8,29.99,North,5,2.0,4.0,60,0.00,,,0.00,Wunderground v.1.15,2013-03-04 02:38:00,
2013-03-03 21:44:00,31.0,18.7,29.99,North,360,1.0,5.0,60,0.00,,,0.00,Wunderground v.1.15,2013-03-04 02:44:00,
2013-03-03 21:50:00,30.8,18.9,29.99,NNE,15,2.0,2.0,61,0.00,,,0.00,Wunderground v.1.15,2013-03-04 02:50:00,
2013-03-03 21:55:00,30.6,18.7,29.99,North,5,2.0,2.0,61,0.00,,,0.00,Wunderground v.1.15,2013-03-04 02:55:00,
2013-03-03 22:00:00,30.5,18.6,29.99,NNE,30,2.0,2.0,61,0.00,,,0.00,Wunderground v.1.15,2013-03-04 03:00:00,
2013-03-03 22:06:00,30.3,18.5,29.99,NNE,26,2.0,4.0,61,0.00,,,0.00,Wunderground v.1.15,2013-03-04 03:06:00,
2013-03-03 22:11:00,30.2,18.7,29.99,NE,36,3.0,4.0,62,0.00,,,0.00,Wunderground v.1.15,2013-03-04 03:11:00,
2013-03-03 22:17:00,30.2,18.7,29.99,NNE,21,3.0,5.0,62,0.00,,,0.00,Wunderground v.1.15,2013-03-04 03:17:00,
2013-03-03 22:23:00,30.2,18.7,29.99,NNE,21,2.0,4.0,62,0.00,,,0.00,Wunderground v.1.15,2013-03-04 03:23:00,
2013-03-03 22:29:00,30.1,18.6,30.00,North,355,1.0,4.0,62,0.00,,,0.00,Wunderground v.1.15,2013-03-04 03:29:00,
2013-03-03 22:35:00,30.1,18.6,30.00,North,360,2.0,2.0,62,0.00,,,0.00,Wunderground v.1.15,2013-03-04 03:35:00,
2013-03-03 22:40:00,30.1,18.6,30.00,NNE,13,2.0,3.0,62,0.00,,,0.00,Wunderground v.1.15,2013-03-04 03:40:00,
2013-03-03 22:46:00,30.1,18.6,30.00,NNW,348,3.0,4.0,62,0.00,,,0.00,Wunderground v.1.15,2013-03-04 03:46:00,
2013-03-03 22:51:00,30.0,18.5,30.00,NNW,348,2.0,2.0,62,0.00,,,0.00,Wunderground v.1.15,2013-03-04 03:51:00,
2013-03-03 22:57:00,29.9,18.5,30.00,NNW,348,1.0,3.0,62,0.00,,,0.00,Wunderground v.1.15,2013-03-04 03:57:00,
2013-03-03 23:03:00,29.8,18.7,30.00,North,360,1.0,3.0,63,0.00,,,0.00,Wunderground v.1.15,2013-03-04 04:03:00,
2013-03-03 23:08:00,29.6,18.5,30.00,North,360,1.0,3.0,63,0.00,,,0.00,Wunderground v.1.15,2013-03-04 04:08:00,
2013-03-03 23:14:00,29.6,18.5,30.00,North,355,1.0,2.0,63,0.00,,,0.00,Wunderground v.1.15,2013-03-04 04:14:00,
2013-03-03 23:20:00,29.6,18.5,30.00,NE,36,1.0,1.0,63,0.00,,,0.00,Wunderground v.1.15,2013-03-04 04:20:00,
2013-03-03 23:25:00,29.6,18.5,30.00,North,355,1.0,3.0,63,0.00,,,0.00,Wunderground v.1.15,2013-03-04 04:25:00,
2013-03-03 23:31:00,29.6,18.5,30.00,North,355,1.0,1.0,63,0.00,,,0.00,Wunderground v.1.15,2013-03-04 04:31:00,
2013-03-03 23:36:00,29.5,18.4,30.00,North,355,1.0,1.0,63,0.00,,,0.00,Wunderground v.1.15,2013-03-04 04:36:00,
2013-03-03 23:42:00,29.3,18.6,30.00,North,355,0.0,1.0,64,0.00,,,0.00,Wunderground v.1.15,2013-03-04 04:42:00,
2013-03-03 23:48:00,29.1,18.4,30.00,North,5,1.0,3.0,64,0.00,,,0.00,Wunderground v.1.15,2013-03-04 04:48:00,
2013-03-03 23:53:00,29.1,18.4,30.00,North,5,1.0,1.0,64,0.00,,,0.00,Wunderground v.1.15,2013-03-04 04:53:00,
2013-03-03 23:59:00,29.0,18.3,30.00,North,5,0.0,1.0,64,0.00,,,0.00,Wunderground v.1.15,2013-03-04 04:59:00,